Cheboygan, MI

4:03 PM EST on January 23, 2018 (GMT -0500)
Cheboygan

Weather History for KSLH - October, 2012

Change the Weather History Date:

Friday, October 5, 2012

  Actual Average (KMCD) Record (KMCD)
Temperature  
Mean Temperature 52 °F -  
Max Temperature 58 °F 56 °F 82 °F (2005)
Min Temperature 45 °F 43 °F 32 °F (1980)
Degree Days  
Heating Degree Days 14    
Growing Degree Days 2 (Base 50)    
Moisture  
Dew Point 37 °F    
Average Humidity 60    
Maximum Humidity 65    
Minimum Humidity 56    
Precipitation  
Precipitation 0.00 in - - ()
Sea Level Pressure  
Sea Level Pressure 29.88 in    
Wind  
Wind Speed 10 mph (WSW)    
Max Wind Speed 21 mph    
Max Gust Speed 26 mph    
Visibility 10 miles    
Events      
Averages and records for this station are not official NWS values.
T = Trace of Precipitation, MM = Missing Value Source: NWS Daily Summary

Daily Weather History Graph

Daily Weather History Graph

Search for Another Location

Airport or City:

Trip Planner

Search our weather history database for the weather conditions in past years. The results will help you decide how hot, cold, wet, or windy it might be!

Date:

Astronomy

Oct. 05, 2012 Rise Set
Actual Time 7:42 AM EDT 7:09 PM EDT
Civil Twilight 7:12 AM EDT 7:39 PM EDT
Nautical Twilight 6:38 AM EDT 8:13 PM EDT
Astronomical Twilight 6:03 AM EDT 8:48 PM EDT
Moon 10:18 PM EDT (10/5) 1:03 PM EDT (10/5)
Length of Visible Light 12h 26m
Length of Day
11h 27m
Waning Gibbous, 74% of the Moon is Illuminated
Oct 5
Waning Gibbous
Oct 8
Last Quarter
Oct 15
New
Oct 21
First Quarter
Oct 29
Full

Hourly Weather History & Observations

Time (EDT) Temp. Windchill Dew Point Humidity Pressure Visibility Wind Dir Wind Speed Gust Speed Precip Events Conditions
12:15 AM 58.5 °F - 44.4 °F 60% 29.86 in 10.0 mi West 10.4 mph 19.6 mph N/A   Clear
12:36 AM 57.7 °F - 42.8 °F 57% 29.86 in 10.0 mi West 11.5 mph 18.4 mph N/A   Clear
12:54 AM 56.5 °F - 41.9 °F 58% 29.87 in 10.0 mi WSW 9.2 mph - N/A   Clear
1:15 AM 55.8 °F - 41.9 °F 60% 29.88 in 10.0 mi West 11.5 mph 20.7 mph N/A   Clear
1:35 AM 54.9 °F - 41.0 °F 60% 29.88 in 10.0 mi WSW 12.7 mph 20.7 mph N/A   Clear
1:55 AM 54.0 °F - 41.0 °F 62% 29.88 in 10.0 mi WSW 9.2 mph - N/A   Clear
2:15 AM 53.1 °F - 40.5 °F 62% 29.88 in 10.0 mi WSW 9.2 mph 16.1 mph N/A   Clear
2:35 AM 52.7 °F - 40.3 °F 63% 29.89 in 10.0 mi WSW 8.1 mph - N/A   Scattered Clouds
2:55 AM 52.7 °F - 40.1 °F 62% 29.89 in 10.0 mi West 9.2 mph - N/A   Scattered Clouds
3:15 AM 52.7 °F - 40.1 °F 62% 29.89 in 10.0 mi WSW 8.1 mph 16.1 mph N/A   Overcast
3:35 AM 52.7 °F - 39.9 °F 62% 29.89 in 10.0 mi West 6.9 mph - N/A   Overcast
3:56 AM 52.3 °F - 39.2 °F 61% 29.89 in 10.0 mi West 6.9 mph 16.1 mph N/A   Overcast
4:15 AM 52.0 °F - 39.2 °F 62% 29.89 in 10.0 mi WSW 10.4 mph - N/A   Overcast
4:35 AM 51.3 °F - 38.3 °F 61% 29.89 in 10.0 mi WSW 11.5 mph 20.7 mph N/A   Overcast
4:55 AM 50.9 °F - 37.9 °F 61% 29.89 in 10.0 mi West 9.2 mph - N/A   Overcast
5:15 AM 50.4 °F - 37.8 °F 62% 29.90 in 10.0 mi West 11.5 mph 21.9 mph N/A   Overcast
5:35 AM 50.2 °F - 38.3 °F 64% 29.90 in 10.0 mi West 11.5 mph 19.6 mph N/A   Overcast
5:55 AM 50.0 °F - 37.8 °F 63% 29.90 in 10.0 mi West 12.7 mph 18.4 mph N/A   Overcast
6:15 AM 50.0 °F - 37.8 °F 63% 29.90 in 10.0 mi West 12.7 mph 19.6 mph N/A   Overcast
6:35 AM 49.6 °F - 37.9 °F 64% 29.90 in 10.0 mi WSW 9.2 mph - N/A   Overcast
6:55 AM 49.5 °F - 37.6 °F 64% 29.90 in 10.0 mi WSW 11.5 mph - N/A   Overcast
7:15 AM 49.3 °F - 37.8 °F 65% 29.91 in 10.0 mi WSW 10.4 mph - N/A   Overcast
7:35 AM 49.1 °F - 37.4 °F 64% 29.90 in 10.0 mi WSW 10.4 mph - N/A   Overcast
7:55 AM 49.1 °F - 37.4 °F 64% 29.90 in 10.0 mi WSW 9.2 mph - N/A   Overcast
8:15 AM 48.9 °F - 37.2 °F 64% 29.90 in 10.0 mi West 9.2 mph 16.1 mph N/A   Overcast
8:36 AM 48.2 °F - 36.3 °F 63% 29.91 in 10.0 mi West 8.1 mph - N/A   Overcast
8:55 AM 48.2 °F - 36.3 °F 63% 29.92 in 10.0 mi West 8.1 mph - N/A   Overcast
9:15 AM 48.2 °F - 36.7 °F 64% 29.92 in 10.0 mi West 5.8 mph - N/A   Overcast
9:36 AM 48.2 °F - 36.0 °F 63% 29.92 in 10.0 mi WSW 11.5 mph 19.6 mph N/A   Overcast
9:55 AM 48.2 °F - 36.1 °F 63% 29.92 in 10.0 mi WSW 9.2 mph 17.3 mph N/A   Overcast
10:16 AM 48.2 °F - 35.6 °F 62% 29.92 in 10.0 mi WSW 15.0 mph 18.4 mph N/A   Overcast
10:35 AM 48.2 °F - 36.1 °F 63% 29.92 in 10.0 mi WSW 13.8 mph 19.6 mph N/A   Overcast
10:55 AM 48.2 °F - 35.8 °F 62% 29.92 in 10.0 mi WSW 11.5 mph 17.3 mph N/A   Overcast
11:16 AM 48.2 °F - 36.1 °F 63% 29.92 in 10.0 mi WSW 11.5 mph 18.4 mph N/A   Overcast
11:35 AM 48.6 °F - 35.8 °F 61% 29.91 in 10.0 mi WSW 13.8 mph 20.7 mph N/A   Overcast
11:55 AM 49.3 °F - 36.3 °F 61% 29.91 in 10.0 mi WSW 11.5 mph 20.7 mph N/A   Overcast
12:35 PM 50.2 °F - 36.7 °F 60% 29.91 in 10.0 mi WSW 10.4 mph 17.3 mph N/A   Overcast
12:56 PM 50.0 °F - 35.8 °F 58% 29.91 in 10.0 mi WSW 13.8 mph 24.2 mph N/A   Overcast
1:15 PM 50.4 °F - 35.2 °F 56% 29.91 in 10.0 mi WSW 16.1 mph 26.5 mph N/A   Overcast
1:35 PM 50.4 °F - 35.6 °F 57% 29.90 in 10.0 mi WSW 12.7 mph 23.0 mph N/A   Overcast
1:55 PM 50.0 °F - 36.5 °F 60% 29.90 in 10.0 mi WSW 16.1 mph 24.2 mph N/A   Overcast
2:36 PM 51.3 °F - 36.5 °F 57% 29.88 in 10.0 mi WSW 15.0 mph 25.3 mph N/A   Overcast
2:55 PM 51.1 °F - 36.3 °F 57% 29.88 in 10.0 mi WSW 20.7 mph 25.3 mph N/A   Overcast
3:15 PM 50.9 °F - 36.0 °F 57% 29.87 in 10.0 mi WSW 13.8 mph 26.5 mph N/A   Overcast
3:35 PM 50.4 °F - 36.0 °F 58% 29.87 in 10.0 mi WSW 12.7 mph 24.2 mph N/A   Overcast
3:55 PM 50.5 °F - 36.3 °F 58% 29.88 in 10.0 mi WSW 10.4 mph 18.4 mph N/A   Overcast
4:15 PM 50.2 °F - 37.0 °F 61% 29.88 in 10.0 mi West 10.4 mph 16.1 mph N/A   Overcast
4:35 PM 50.0 °F - 36.3 °F 59% 29.87 in 10.0 mi West 13.8 mph 20.7 mph N/A   Overcast
4:55 PM 49.5 °F - 35.8 °F 59% 29.88 in 10.0 mi WSW 11.5 mph 19.6 mph N/A   Overcast
5:15 PM 49.3 °F - 35.8 °F 60% 29.87 in 10.0 mi WSW 10.4 mph 16.1 mph N/A   Overcast
5:35 PM 49.1 °F - 36.0 °F 61% 29.87 in 10.0 mi WSW 5.8 mph - N/A   Overcast
5:55 PM 49.1 °F - 35.8 °F 60% 29.86 in 10.0 mi WSW 8.1 mph - N/A   Overcast
6:16 PM 49.1 °F - 36.0 °F 61% 29.86 in 10.0 mi WSW 4.6 mph - N/A   Overcast
6:35 PM 49.1 °F - 35.6 °F 60% 29.87 in 10.0 mi WSW 8.1 mph - N/A   Overcast
7:16 PM 48.7 °F - 35.6 °F 60% 29.86 in 10.0 mi WSW 6.9 mph - N/A   Overcast
7:35 PM 49.1 °F - 35.4 °F 59% 29.85 in 10.0 mi SW 8.1 mph 16.1 mph N/A   Overcast
7:55 PM 49.1 °F - 34.9 °F 58% 29.85 in 10.0 mi WSW 10.4 mph - N/A   Overcast
8:15 PM 49.3 °F - 34.9 °F 58% 29.84 in 10.0 mi WSW 8.1 mph - N/A   Overcast
8:35 PM 49.3 °F - 34.7 °F 57% 29.85 in 10.0 mi West 9.2 mph 17.3 mph N/A   Overcast
8:56 PM 48.0 °F - 35.1 °F 61% 29.85 in 10.0 mi West 6.9 mph - N/A   Overcast
9:15 PM 47.7 °F - 33.1 °F 57% 29.85 in 10.0 mi WNW 9.2 mph 16.1 mph N/A   Overcast
9:35 PM 47.3 °F - 33.3 °F 58% 29.85 in 10.0 mi WNW 8.1 mph - N/A   Overcast
9:55 PM 46.8 °F - 32.4 °F 57% 29.86 in 10.0 mi WNW 13.8 mph 20.7 mph N/A   Overcast
10:15 PM 45.7 °F 40.2 °F 32.4 °F 60% 29.86 in 10.0 mi West 11.5 mph 23.0 mph N/A   Overcast
10:35 PM 45.7 °F 39.5 °F 32.0 °F 59% 29.85 in 10.0 mi West 13.8 mph 19.6 mph N/A   Overcast
10:55 PM 45.5 °F 39.2 °F 31.1 °F 57% 29.85 in 10.0 mi West 13.8 mph 20.7 mph N/A   Overcast
11:35 PM 45.1 °F 41.4 °F 31.1 °F 58% 29.84 in 10.0 mi West 6.9 mph - N/A   Overcast
11:55 PM 45.1 °F 42.8 °F 30.9 °F 58% 29.84 in 10.0 mi West 4.6 mph - N/A   Overcast